Waynesville-St. Robert Regional Forney field Fort Leonard Wood US
ICAO: KTBN
IATA: TBN
Category: Medium
Scheduled Services: Yes

Elevation: 1159 ft
TransAlt. 18000 ft.

Airport Communications:
ATIS:118.7
KANSAS CITY CNTR:133.8
CTAF:125.4
FORNEY TWR:125.4

KTBN Zoom In..

Runways:

(A) RW 14 length 6038 ft width 150 ft
ILS 110.90 / hdg 144

(B) RW 32 length 6038 ft width 150 ft
---- / hdg 324

Location; KTBN
Day. 23 / Time. 21.56 Zulu
* Altimeter: 30.08
* Temperature: 29° c. 84.2°f.
* Wind from: KTB° Speed N kn.
Dewpoint: 18° c.
Visibility: 10 Statute Miles.
Clouds: Few 5000 ft.

KTBN 232156Z AUTO 14009KT 10SM FEW050 29/18 A3008 RMK AO2 SLP179 T02930178


Wind From KTB°
Speed N kn.

 
 
jpsmedia.com for Web Design SOUNDCLOUD worldairports.se 2018   terms of use